Time;durP1;ratioP1;P1;durP2;ratioP2;P2;SDS_P1;SDS_P2;PMS_P1;PMS_P2;Temp;Humidity;BMP_temperature;BMP_pressure;BME280_temperature;BME280_humidity;BME280_pressure;Samples;Min_cycle;Max_cycle;Signal;HPM_P1;HPM_P2
2022/01/23 00:00:40;;;;;;;39.17;21.83;;;8.30;99.90;;;;;;4959307;28;20283;-86
2022/01/23 00:03:10;;;;;;;36.43;22.07;;;8.50;99.90;;;;;;4959138;28;20581;-87
2022/01/23 00:05:40;;;;;;;34.17;22.37;;;8.60;99.90;;;;;;4976651;28;20659;-87
2022/01/23 00:08:06;;;;;;;36.07;20.53;;;8.80;99.90;;;;;;4975970;28;20184;-87
2022/01/23 00:10:33;;;;;;;34.37;21.10;;;8.80;99.90;;;;;;4959077;28;20658;-87
2022/01/23 00:13:12;;;;;;;36.27;21.60;;;8.60;99.90;;;;;;4958486;28;20181;-87
2022/01/23 00:18:23;;;;;;;36.30;22.63;;;8.70;99.90;;;;;;4975598;28;20243;-85
2022/01/23 00:20:50;;;;;;;35.10;21.53;;;8.80;99.90;;;;;;4975340;28;20189;-84
2022/01/23 00:31:31;;;;;;;36.23;22.27;;;8.90;99.90;;;;;;4955465;28;20193;-87
2022/01/23 00:33:58;;;;;;;39.03;22.93;;;8.70;99.90;;;;;;4936522;28;20293;-87
2022/01/23 00:36:25;;;;;;;38.57;22.97;;;8.70;99.90;;;;;;4948621;28;20190;-84
2022/01/23 00:38:52;;;;;;;41.67;24.37;;;8.90;99.90;;;;;;4930707;29;20190;-82
2022/01/23 00:41:18;;;;;;;40.23;23.23;;;9.10;99.90;;;;;;4936072;29;20188;-88
2022/01/23 00:43:45;;;;;;;42.43;24.03;;;9.00;99.90;;;;;;4936981;28;20270;-82
2022/01/23 00:51:26;;;;;;;35.53;22.67;;;8.70;99.90;;;;;;4953214;28;20178;-85
2022/01/23 00:53:53;;;;;;;40.97;23.93;;;8.70;99.90;;;;;;4933076;29;20424;-85
2022/01/23 00:56:18;;;;;;;43.63;24.27;;;8.80;99.90;;;;;;4932259;29;20183;-82
2022/01/23 00:58:44;;;;;;;39.97;23.90;;;8.60;99.90;;;;;;4925095;29;20186;-84
2022/01/23 01:01:11;;;;;;;40.33;24.50;;;8.60;99.90;;;;;;4935980;29;20569;-82
2022/01/23 01:03:36;;;;;;;40.37;23.47;;;8.70;99.90;;;;;;4935980;29;20242;-84
2022/01/23 01:06:02;;;;;;;40.70;23.33;;;8.80;99.90;;;;;;4918934;29;20181;-83
2022/01/23 01:08:28;;;;;;;39.30;22.80;;;8.90;99.90;;;;;;4919094;29;20181;-82
2022/01/23 01:13:52;;;;;;;38.97;22.30;;;8.90;99.90;;;;;;4938912;28;20195;-83
2022/01/23 01:32:45;;;;;;;38.37;22.10;;;8.40;99.90;;;;;;4936017;29;20673;-82
2022/01/23 01:35:22;;;;;;;39.97;22.57;;;8.60;99.90;;;;;;4918619;29;20186;-82
2022/01/23 01:37:48;;;;;;;38.07;22.83;;;8.70;99.90;;;;;;4935881;29;20193;-83
2022/01/23 01:40:14;;;;;;;40.57;23.07;;;8.60;99.90;;;;;;4935692;29;20189;-83
2022/01/23 01:42:39;;;;;;;39.73;23.10;;;8.60;99.90;;;;;;4918559;29;20276;-84
2022/01/23 01:45:05;;;;;;;36.70;22.53;;;8.50;99.90;;;;;;4918247;29;20555;-83
2022/01/23 01:47:31;;;;;;;39.27;20.83;;;8.50;99.90;;;;;;4918731;29;20200;-84
2022/01/23 01:49:57;;;;;;;40.17;24.30;;;8.30;99.90;;;;;;4936711;29;20870;-82
2022/01/23 01:52:23;;;;;;;35.37;22.70;;;8.10;99.90;;;;;;4922452;29;20192;-84
2022/01/23 01:54:58;;;;;;;38.63;23.80;;;8.10;99.90;;;;;;4938409;29;20566;-82
2022/01/23 01:57:28;;;;;;;42.53;24.03;;;8.10;99.90;;;;;;4939678;29;20182;-82
2022/01/23 02:00:13;;;;;;;41.50;23.97;;;8.10;99.90;;;;;;4922292;29;20190;-82
2022/01/23 02:10:51;;;;;;;46.07;23.83;;;8.20;99.90;;;;;;4939259;29;20312;-82
2022/01/23 02:13:22;;;;;;;45.20;24.83;;;8.20;99.90;;;;;;4921694;29;20202;-82
2022/01/23 02:51:15;;;;;;;41.33;23.07;;;8.30;99.90;;;;;;4938652;29;20190;-83
2022/01/23 02:56:22;;;;;;;37.20;22.27;;;8.20;99.90;;;;;;4937893;29;20247;-83
2022/01/23 02:58:58;;;;;;;40.57;23.87;;;8.30;99.90;;;;;;4938414;29;20192;-83
2022/01/23 03:01:29;;;;;;;36.40;23.60;;;8.50;99.90;;;;;;4935925;29;20211;-83
2022/01/23 03:04:03;;;;;;;45.50;24.40;;;8.50;99.90;;;;;;4921266;29;20249;-82
2022/01/23 03:06:54;;;;;;;40.17;23.87;;;8.70;99.90;;;;;;4938211;29;20174;-82
2022/01/23 03:10:07;;;;;;;41.50;25.80;;;8.60;99.90;;;;;;4937871;29;20197;-83
2022/01/23 03:15:06;;;;;;;48.63;24.70;;;8.60;99.90;;;;;;4902127;29;20198;-82
2022/01/23 03:28:21;;;;;;;44.80;26.07;;;8.60;99.90;;;;;;4938028;29;20183;-83
2022/01/23 03:33:35;;;;;;;46.93;25.87;;;8.60;99.90;;;;;;4938013;29;20301;-82
2022/01/23 03:36:02;;;;;;;47.63;26.27;;;8.70;99.90;;;;;;4937612;29;20181;-82
2022/01/23 03:38:27;;;;;;;49.13;26.73;;;8.60;99.90;;;;;;4937929;29;20179;-83
2022/01/23 03:40:54;;;;;;;43.13;25.00;;;8.50;99.90;;;;;;4920312;29;20560;-81
2022/01/23 03:43:27;;;;;;;47.23;26.97;;;8.70;99.90;;;;;;4936137;29;20208;-84
2022/01/23 03:51:08;;;;;;;43.20;26.90;;;8.40;99.90;;;;;;4937307;29;20553;-82
2022/01/23 03:53:33;;;;;;;49.10;26.80;;;8.50;99.90;;;;;;4937160;29;20166;-85
2022/01/23 03:55:59;;;;;;;48.83;27.10;;;8.50;99.90;;;;;;4919920;29;20178;-82
2022/01/23 03:58:24;;;;;;;49.23;27.63;;;8.60;99.90;;;;;;4920158;29;20182;-84
2022/01/23 04:00:50;;;;;;;51.53;27.77;;;8.70;99.90;;;;;;4920281;29;20636;-81
2022/01/23 04:03:18;;;;;;;45.50;26.47;;;8.70;99.90;;;;;;4936852;29;20712;-83
2022/01/23 04:05:44;;;;;;;48.63;27.90;;;8.50;99.90;;;;;;4920044;29;20234;-84
2022/01/23 04:08:10;;;;;;;49.83;27.53;;;8.40;99.90;;;;;;4920055;29;20178;-84
2022/01/23 04:10:36;;;;;;;49.47;26.10;;;8.40;99.90;;;;;;4936571;29;20257;-84
2022/01/23 04:13:17;;;;;;;47.93;28.93;;;8.40;99.90;;;;;;4936723;29;20197;-81
2022/01/23 04:16:03;;;;;;;54.07;28.60;;;8.50;99.90;;;;;;4920100;29;20198;-82
2022/01/23 04:21:19;;;;;;;47.80;26.93;;;8.50;99.90;;;;;;4936938;29;20170;-82
2022/01/23 04:32:22;;;;;;;43.83;24.57;;;8.10;99.90;;;;;;4936855;29;20170;-83
2022/01/23 04:45:33;;;;;;;46.97;26.57;;;8.20;99.90;;;;;;4936075;29;20222;-82
2022/01/23 05:04:27;;;;;;;45.93;25.97;;;8.40;99.90;;;;;;4936306;29;20209;-83
2022/01/23 05:07:05;;;;;;;48.90;26.67;;;8.40;99.90;;;;;;4935786;29;20700;-82
2022/01/23 05:09:32;;;;;;;46.37;25.13;;;8.30;99.90;;;;;;4918813;29;20273;-83
2022/01/23 05:12:06;;;;;;;49.43;27.90;;;8.40;99.90;;;;;;4937038;29;20194;-83
2022/01/23 05:14:38;;;;;;;51.17;27.83;;;8.70;99.90;;;;;;4921312;29;20226;-83
2022/01/23 05:17:06;;;;;;;50.47;27.77;;;8.90;99.90;;;;;;4919073;29;20188;-83
2022/01/23 05:19:33;;;;;;;55.40;30.00;;;8.90;99.90;;;;;;4918773;29;20549;-84
2022/01/23 05:22:19;;;;;;;47.30;27.80;;;8.70;99.90;;;;;;4918757;29;20180;-82
2022/01/23 05:24:52;;;;;;;50.73;28.00;;;8.60;99.90;;;;;;4918114;29;20220;-83
2022/01/23 05:27:17;;;;;;;53.00;28.83;;;8.40;99.90;;;;;;4918812;29;20197;-83
2022/01/23 05:29:43;;;;;;;53.83;28.63;;;8.50;99.90;;;;;;4918615;29;20186;-82
2022/01/23 05:32:12;;;;;;;55.50;28.27;;;8.50;99.90;;;;;;4918945;29;20176;-83
2022/01/23 05:34:38;;;;;;;49.57;27.50;;;8.50;99.90;;;;;;4918508;29;20674;-82
2022/01/23 05:37:03;;;;;;;50.53;28.87;;;8.40;99.90;;;;;;4918450;29;20271;-83
2022/01/23 05:39:32;;;;;;;47.07;27.40;;;8.10;99.90;;;;;;4918599;29;20190;-83
2022/01/23 05:42:05;;;;;;;48.70;28.10;;;8.20;99.90;;;;;;4918786;29;20181;-83
2022/01/23 05:44:31;;;;;;;50.40;27.63;;;8.10;99.90;;;;;;4918630;29;20299;-83
2022/01/23 05:46:57;;;;;;;45.97;26.53;;;8.00;99.90;;;;;;4920963;29;20274;-83
2022/01/23 05:49:22;;;;;;;50.73;27.90;;;8.10;99.90;;;;;;4943760;28;20194;-83
2022/01/23 05:51:48;;;;;;;49.27;27.90;;;8.40;99.90;;;;;;4927417;29;20565;-82
2022/01/23 05:54:14;;;;;;;50.83;27.43;;;8.20;99.90;;;;;;4954374;29;20189;-82
2022/01/23 05:56:40;;;;;;;49.80;29.63;;;8.20;99.90;;;;;;4925751;29;20269;-82
2022/01/23 05:59:05;;;;;;;47.93;28.37;;;8.60;99.90;;;;;;4935346;29;20261;-82
2022/01/23 06:01:31;;;;;;;52.83;27.97;;;8.70;99.90;;;;;;4918870;29;20272;-82
2022/01/23 06:03:56;;;;;;;51.87;28.77;;;8.70;99.90;;;;;;4935300;29;20223;-83
2022/01/23 06:06:22;;;;;;;46.27;27.20;;;8.50;99.90;;;;;;4935020;29;20666;-82
2022/01/23 06:08:48;;;;;;;48.70;27.30;;;8.30;99.90;;;;;;4935625;29;20230;-83
2022/01/23 06:11:13;;;;;;;47.40;27.00;;;8.20;99.90;;;;;;4918223;29;20183;-83
2022/01/23 06:13:39;;;;;;;49.47;27.47;;;8.10;99.90;;;;;;4935204;29;20224;-83
2022/01/23 06:16:05;;;;;;;50.93;26.83;;;7.90;99.90;;;;;;4935343;29;20629;-83
2022/01/23 06:18:32;;;;;;;49.90;27.53;;;7.90;99.90;;;;;;4918475;29;20184;-82
2022/01/23 06:20:57;;;;;;;47.43;27.13;;;8.00;99.90;;;;;;4917983;29;20731;-83
2022/01/23 06:23:28;;;;;;;50.40;26.77;;;7.90;99.90;;;;;;4934956;29;20293;-83
2022/01/23 06:25:54;;;;;;;54.37;28.93;;;7.90;99.90;;;;;;4918131;29;20190;-82
2022/01/23 06:28:49;;;;;;;49.30;28.37;;;8.30;99.90;;;;;;4918143;29;20178;-82
2022/01/23 06:31:15;;;;;;;48.63;27.13;;;8.70;99.90;;;;;;4926837;29;20233;-82
2022/01/23 06:33:41;;;;;;;51.53;29.27;;;8.50;99.90;;;;;;4918128;29;20598;-82
2022/01/23 06:36:07;;;;;;;46.63;27.77;;;8.30;99.90;;;;;;4919048;29;20187;-83
2022/01/23 06:38:32;;;;;;;47.37;26.40;;;8.30;99.90;;;;;;4938526;29;20198;-82
2022/01/23 06:40:58;;;;;;;55.67;28.47;;;8.30;99.90;;;;;;4921460;29;20179;-83
2022/01/23 06:43:23;;;;;;;49.97;27.70;;;8.30;99.90;;;;;;4921327;29;20703;-82
2022/01/23 06:45:49;;;;;;;55.20;28.50;;;8.20;99.90;;;;;;4921468;29;20189;-84
2022/01/23 06:48:15;;;;;;;52.00;27.60;;;8.50;99.90;;;;;;4921128;29;20671;-80
2022/01/23 06:50:40;;;;;;;52.05;31.33;;;8.50;99.90;;;;;;4920576;29;20425;-83
2022/01/23 06:53:06;;;;;;;51.80;28.87;;;8.80;99.90;;;;;;4937040;29;20214;-83
2022/01/23 06:55:32;;;;;;;48.23;27.17;;;8.70;99.90;;;;;;4921075;29;20563;-83
2022/01/23 06:57:57;;;;;;;43.93;25.63;;;8.70;99.90;;;;;;4921199;29;20183;-83
2022/01/23 07:00:23;;;;;;;50.67;26.90;;;8.40;99.90;;;;;;4920756;29;20193;-82
2022/01/23 07:02:48;;;;;;;46.93;26.53;;;8.40;99.90;;;;;;4937929;29;20168;-85
2022/01/23 07:05:14;;;;;;;45.97;26.40;;;8.20;99.90;;;;;;4937713;29;20197;-82
2022/01/23 07:07:39;;;;;;;50.13;26.77;;;8.10;99.90;;;;;;4937643;29;20188;-83
2022/01/23 07:10:05;;;;;;;46.80;26.67;;;7.90;99.90;;;;;;4921276;29;20184;-83
2022/01/23 07:12:31;;;;;;;43.70;25.00;;;7.80;99.90;;;;;;4937893;29;20191;-84
2022/01/23 07:14:57;;;;;;;46.13;26.37;;;7.80;99.90;;;;;;4936731;29;20208;-82
2022/01/23 07:17:22;;;;;;;45.73;25.50;;;7.90;99.90;;;;;;4936619;29;20187;-83
2022/01/23 07:19:48;;;;;;;47.17;25.23;;;7.90;99.90;;;;;;4937940;29;20181;-83
2022/01/23 07:22:14;;;;;;;43.73;23.60;;;7.90;99.90;;;;;;4937847;29;20187;-83
2022/01/23 07:24:39;;;;;;;45.97;26.33;;;8.10;99.90;;;;;;4920876;29;20217;-83
2022/01/23 07:27:18;;;;;;;41.93;24.37;;;8.20;99.90;;;;;;4920911;29;20604;-82
2022/01/23 07:29:45;;;;;;;39.07;22.97;;;8.40;99.90;;;;;;4937813;29;20587;-84
2022/01/23 07:32:11;;;;;;;39.93;22.73;;;8.40;99.90;;;;;;4920621;29;20176;-83
2022/01/23 07:34:37;;;;;;;45.60;24.90;;;8.30;99.90;;;;;;4920665;29;20273;-83
2022/01/23 07:37:03;;;;;;;40.73;24.23;;;8.10;99.90;;;;;;4937777;29;20184;-83
2022/01/23 07:39:28;;;;;;;44.10;24.93;;;8.10;99.90;;;;;;4920461;29;20706;-84
2022/01/23 07:41:54;;;;;;;42.80;25.00;;;8.00;99.90;;;;;;4920800;29;20187;-82
2022/01/23 07:44:19;;;;;;;42.90;25.37;;;7.90;99.90;;;;;;4920397;29;20218;-82
2022/01/23 07:46:45;;;;;;;47.67;25.67;;;7.90;99.90;;;;;;4920107;29;20600;-83
2022/01/23 07:49:11;;;;;;;45.47;26.17;;;7.80;99.90;;;;;;4919771;29;20547;-83
2022/01/23 07:51:38;;;;;;;42.30;25.40;;;7.80;99.90;;;;;;4920391;29;20200;-83
2022/01/23 07:54:03;;;;;;;48.70;27.07;;;8.00;99.90;;;;;;4921490;29;20696;-82
2022/01/23 07:56:29;;;;;;;41.20;23.90;;;7.90;99.90;;;;;;4938789;29;20180;-82
2022/01/23 07:58:55;;;;;;;42.07;24.13;;;7.90;99.90;;;;;;4937280;29;20184;-82
2022/01/23 08:01:20;;;;;;;41.00;23.77;;;8.10;99.90;;;;;;4920148;29;20195;-83
2022/01/23 08:03:46;;;;;;;44.50;24.73;;;8.20;99.90;;;;;;4920132;29;20577;-83
2022/01/23 08:06:12;;;;;;;40.43;23.00;;;8.40;99.90;;;;;;4937079;29;20179;-83
2022/01/23 08:08:38;;;;;;;34.23;18.37;;;8.30;99.90;;;;;;4919883;29;20176;-81
2022/01/23 08:11:05;;;;;;;31.60;18.93;;;8.30;99.90;;;;;;4936038;29;20184;-82
2022/01/23 08:13:31;;;;;;;40.17;21.77;;;8.40;99.90;;;;;;4919794;29;20661;-83
2022/01/23 08:15:56;;;;;;;37.00;22.73;;;8.40;99.90;;;;;;4919999;29;20187;-83
2022/01/23 08:18:22;;;;;;;38.50;23.20;;;8.30;99.90;;;;;;4919807;29;20256;-83
2022/01/23 08:20:48;;;;;;;36.57;22.27;;;8.20;99.90;;;;;;4937054;29;20242;-83
2022/01/23 08:23:14;;;;;;;40.03;22.80;;;8.10;99.90;;;;;;4919753;29;20253;-83
2022/01/23 08:25:41;;;;;;;39.83;24.33;;;8.10;99.90;;;;;;4935553;29;20601;-83
2022/01/23 08:28:09;;;;;;;37.40;21.87;;;8.10;99.90;;;;;;4919871;29;20219;-83
2022/01/23 08:30:35;;;;;;;40.60;23.13;;;8.00;99.90;;;;;;4936417;29;20175;-81
2022/01/23 08:33:01;;;;;;;38.37;22.37;;;8.00;99.90;;;;;;4919695;29;20180;-83
2022/01/23 08:35:28;;;;;;;38.20;22.23;;;8.10;99.90;;;;;;4919648;29;20279;-80
2022/01/23 08:37:54;;;;;;;34.37;21.27;;;8.30;99.90;;;;;;4936682;29;20186;-80
2022/01/23 08:40:35;;;;;;;35.03;21.33;;;8.40;99.90;;;;;;4935310;29;20180;-83
2022/01/23 08:43:00;;;;;;;17.47;11.37;;;8.50;99.90;;;;;;4936455;29;20207;-82
2022/01/23 08:45:26;;;;;;;18.73;12.07;;;8.80;99.90;;;;;;4918966;29;20180;-83
2022/01/23 08:47:52;;;;;;;22.47;13.53;;;9.00;99.90;;;;;;4919135;29;20205;-83
2022/01/23 08:50:17;;;;;;;23.97;14.77;;;8.70;99.90;;;;;;4936414;29;20197;-83
2022/01/23 08:52:43;;;;;;;24.43;15.50;;;8.60;99.90;;;;;;4919497;29;20241;-81
2022/01/23 08:55:09;;;;;;;14.70;10.30;;;8.60;99.90;;;;;;4919333;29;20193;-84
2022/01/23 08:57:34;;;;;;;24.77;16.17;;;8.80;99.90;;;;;;4919443;29;20178;-82
2022/01/23 09:00:00;;;;;;;32.20;19.77;;;8.80;99.90;;;;;;4918206;29;20597;-83
2022/01/23 09:02:27;;;;;;;34.47;21.13;;;8.70;99.90;;;;;;4919300;29;20177;-83
2022/01/23 09:04:53;;;;;;;39.63;22.13;;;8.50;99.90;;;;;;4919047;29;20266;-83
2022/01/23 09:07:18;;;;;;;36.30;21.80;;;8.50;99.90;;;;;;4919399;29;20678;-82
2022/01/23 09:09:44;;;;;;;39.03;23.17;;;8.70;99.90;;;;;;4919090;29;20717;-83
2022/01/23 09:12:40;;;;;;;41.40;22.60;;;8.70;99.90;;;;;;4919237;29;20190;-83
2022/01/23 09:15:06;;;;;;;22.90;12.90;;;8.60;99.90;;;;;;4918552;29;20196;-83
2022/01/23 09:17:32;;;;;;;17.37;12.50;;;8.60;99.90;;;;;;4918985;29;20211;-82
2022/01/23 09:19:58;;;;;;;21.13;13.17;;;8.70;99.90;;;;;;4936111;29;20245;-83
2022/01/23 09:22:27;;;;;;;16.53;10.73;;;8.50;99.90;;;;;;4935799;29;20704;-82
2022/01/23 09:24:52;;;;;;;20.37;12.47;;;8.50;99.90;;;;;;4918826;29;20251;-83
2022/01/23 09:27:19;;;;;;;23.43;15.30;;;8.50;99.90;;;;;;4919117;29;20214;-84
2022/01/23 09:29:49;;;;;;;28.87;18.07;;;8.50;99.90;;;;;;4918381;29;20186;-82
2022/01/23 09:32:16;;;;;;;35.13;20.93;;;8.60;99.90;;;;;;4918969;29;20171;-83
2022/01/23 09:34:43;;;;;;;32.70;18.90;;;9.00;99.90;;;;;;4918596;29;20183;-82
2022/01/23 09:37:15;;;;;;;34.63;20.07;;;8.90;99.90;;;;;;4919031;29;20210;-83
2022/01/23 09:39:45;;;;;;;31.07;20.10;;;8.80;99.90;;;;;;4936096;29;20176;-83
2022/01/23 09:42:33;;;;;;;29.57;18.17;;;9.00;99.90;;;;;;4918693;29;20186;-83
2022/01/23 09:45:06;;;;;;;29.10;18.30;;;9.10;99.90;;;;;;4918638;29;20225;-83
2022/01/23 09:47:32;;;;;;;30.63;18.43;;;8.90;99.90;;;;;;4918524;29;20213;-81
2022/01/23 09:50:00;;;;;;;27.57;17.23;;;8.80;99.90;;;;;;4939505;28;20200;-82
2022/01/23 09:52:29;;;;;;;23.47;14.33;;;8.70;99.90;;;;;;4940831;28;20545;-86
2022/01/23 09:54:57;;;;;;;22.00;14.03;;;9.00;99.90;;;;;;4974270;28;20183;-86
2022/01/23 09:57:28;;;;;;;26.00;17.10;;;8.90;99.90;;;;;;4955352;28;20195;-85
2022/01/23 09:59:54;;;;;;;25.00;15.40;;;8.70;99.90;;;;;;4975709;28;20186;-85
2022/01/23 10:02:20;;;;;;;23.50;14.80;;;8.80;99.90;;;;;;4959411;28;20198;-87
2022/01/23 10:04:46;;;;;;;25.73;17.00;;;8.80;99.90;;;;;;4956657;28;20576;-86
2022/01/23 10:07:13;;;;;;;24.30;16.43;;;8.80;99.90;;;;;;4973532;28;20185;-86
2022/01/23 10:09:38;;;;;;;27.33;17.43;;;8.90;99.90;;;;;;4956917;28;20210;-85
2022/01/23 10:12:07;;;;;;;27.83;16.77;;;8.90;99.90;;;;;;4959056;28;20174;-86
2022/01/23 10:14:32;;;;;;;33.80;19.20;;;8.90;99.90;;;;;;4943677;28;20212;-86
2022/01/23 10:16:59;;;;;;;32.23;18.43;;;9.00;99.90;;;;;;4960426;28;20185;-86
2022/01/23 10:19:25;;;;;;;26.00;17.67;;;9.00;99.90;;;;;;4960247;28;20189;-86
2022/01/23 10:21:51;;;;;;;29.53;17.07;;;9.10;99.90;;;;;;4942511;29;20194;-86
2022/01/23 10:24:16;;;;;;;31.23;19.67;;;9.20;99.90;;;;;;4941073;29;20675;-87
2022/01/23 10:26:51;;;;;;;27.57;16.97;;;9.30;99.90;;;;;;4953890;28;20198;-85
2022/01/23 10:29:37;;;;;;;32.20;17.03;;;9.20;99.90;;;;;;4939181;29;20221;-86
2022/01/23 10:32:20;;;;;;;23.77;15.37;;;9.30;99.90;;;;;;4940863;29;20189;-86
2022/01/23 10:34:57;;;;;;;23.67;13.63;;;9.40;99.90;;;;;;4940914;29;20179;-86
2022/01/23 10:37:31;;;;;;;28.93;16.47;;;9.30;99.90;;;;;;4957824;28;20171;-86
2022/01/23 10:39:58;;;;;;;39.33;23.73;;;9.10;99.90;;;;;;4957596;28;20179;-86
2022/01/23 10:47:55;;;;;;;25.33;16.30;;;9.30;99.90;;;;;;4949703;28;20218;-85
2022/01/23 10:50:23;;;;;;;24.33;14.93;;;9.10;99.90;;;;;;4953041;28;20254;-85
2022/01/23 10:52:51;;;;;;;17.83;11.33;;;9.20;99.90;;;;;;4940449;28;20532;-85
2022/01/23 10:55:29;;;;;;;20.00;11.37;;;9.10;99.90;;;;;;4940411;29;20229;-85
2022/01/23 10:58:00;;;;;;;18.13;12.80;;;9.20;99.90;;;;;;4953708;28;20610;-85
2022/01/23 11:00:31;;;;;;;19.80;11.33;;;9.40;99.90;;;;;;4977202;28;20174;-85
2022/01/23 11:02:59;;;;;;;17.50;11.53;;;9.60;99.90;;;;;;4976459;28;20646;-85
2022/01/23 11:05:37;;;;;;;21.70;12.50;;;9.20;99.90;;;;;;4970669;28;20206;-84
2022/01/23 11:08:25;;;;;;;18.13;12.40;;;9.10;99.90;;;;;;4950408;29;20195;-86
2022/01/23 11:11:02;;;;;;;14.90;8.70;;;9.20;99.90;;;;;;4920763;29;20266;-87
2022/01/23 11:19:24;;;;;;;16.57;11.07;;;9.30;99.90;;;;;;4938299;29;20198;-87
2022/01/23 11:21:52;;;;;;;18.03;11.40;;;9.20;99.90;;;;;;4937602;29;20179;-87
2022/01/23 11:24:18;;;;;;;21.37;11.43;;;9.20;99.90;;;;;;4919906;29;20310;-87
2022/01/23 11:26:43;;;;;;;17.13;11.40;;;9.20;99.90;;;;;;4926330;28;20315;-87
2022/01/23 11:29:19;;;;;;;21.03;11.70;;;9.10;99.90;;;;;;4959295;28;20234;-85
2022/01/23 11:31:45;;;;;;;16.70;11.63;;;9.30;99.90;;;;;;4976229;28;20181;-88
2022/01/23 11:34:13;;;;;;;18.10;12.20;;;9.30;99.90;;;;;;4958993;28;20178;-86
2022/01/23 11:36:39;;;;;;;16.93;10.47;;;9.30;99.90;;;;;;4958964;28;20178;-88
2022/01/23 11:39:15;;;;;;;15.87;9.40;;;9.40;99.90;;;;;;4958628;28;20185;-85
2022/01/23 11:55:46;;;;;;;23.27;12.60;;;9.50;99.90;;;;;;4976567;28;20193;-87
2022/01/23 11:58:35;;;;;;;20.07;13.13;;;9.40;99.90;;;;;;4959719;28;20275;-90
2022/01/23 12:01:18;;;;;;;18.53;12.73;;;9.50;99.90;;;;;;4959250;28;20182;-86
2022/01/23 12:04:05;;;;;;;22.20;12.30;;;9.50;99.90;;;;;;4958589;28;20207;-86
2022/01/23 12:06:31;;;;;;;19.80;11.70;;;9.50;99.90;;;;;;4936222;29;20202;-87
2022/01/23 12:09:09;;;;;;;18.27;10.80;;;9.60;99.90;;;;;;4932682;28;20205;-87
2022/01/23 12:11:46;;;;;;;19.93;13.47;;;9.70;99.90;;;;;;4950417;28;20188;-87
2022/01/23 12:16:57;;;;;;;20.30;12.70;;;9.60;99.90;;;;;;4967841;28;20628;-86
2022/01/23 12:19:28;;;;;;;14.73;8.73;;;9.80;99.90;;;;;;4938908;29;20183;-87
2022/01/23 12:21:56;;;;;;;24.83;14.27;;;9.80;99.90;;;;;;4938970;29;20194;-86
2022/01/23 12:24:24;;;;;;;21.53;11.10;;;9.60;99.90;;;;;;4938793;29;20236;-88
2022/01/23 12:26:52;;;;;;;18.77;11.17;;;9.40;99.90;;;;;;4943603;28;20645;-85
2022/01/23 12:29:28;;;;;;;19.27;11.63;;;9.50;99.90;;;;;;4919391;29;20556;-85
2022/01/23 12:32:29;;;;;;;15.73;9.17;;;9.70;99.90;;;;;;4919984;29;20184;-83
2022/01/23 12:34:57;;;;;;;15.77;9.27;;;9.70;99.90;;;;;;4896235;29;20187;-84
2022/01/23 12:37:44;;;;;;;14.90;8.73;;;9.80;99.90;;;;;;4919315;29;20268;-86
2022/01/23 12:40:29;;;;;;;19.03;11.10;;;9.80;99.90;;;;;;4937421;29;20191;-87
2022/01/23 12:43:21;;;;;;;18.43;11.00;;;9.70;99.90;;;;;;4939166;28;20198;-92
2022/01/23 12:45:52;;;;;;;25.97;14.57;;;9.80;99.90;;;;;;4971275;28;20250;-86
2022/01/23 12:48:29;;;;;;;15.60;9.33;;;9.80;99.90;;;;;;4957918;28;20202;-89
2022/01/23 12:51:08;;;;;;;35.77;19.57;;;9.90;99.90;;;;;;4977021;28;20171;-88
2022/01/23 12:53:37;;;;;;;22.03;12.07;;;10.10;99.90;;;;;;4936825;28;20561;-91
2022/01/23 12:56:04;;;;;;;18.90;12.30;;;9.80;99.90;;;;;;4922026;29;20708;-89
2022/01/23 12:58:32;;;;;;;17.10;11.03;;;9.60;99.90;;;;;;4924469;29;20191;-89
2022/01/23 13:00:59;;;;;;;16.03;10.20;;;9.60;99.90;;;;;;4938041;29;20211;-89
2022/01/23 13:03:26;;;;;;;17.90;11.30;;;9.70;99.90;;;;;;4936234;28;20195;-89
2022/01/23 13:05:52;;;;;;;18.63;12.73;;;9.90;99.90;;;;;;4941874;28;20661;-91
2022/01/23 13:08:24;;;;;;;18.30;11.40;;;9.90;99.90;;;;;;4956973;28;20186;-91
2022/01/23 13:16:04;;;;;;;24.90;16.17;;;9.80;99.90;;;;;;4949551;28;20205;-86
2022/01/23 14:00:26;;;;;;;17.33;9.17;;;9.90;99.90;;;;;;5047139;28;20187;-87
2022/01/23 14:03:29;;;;;;;16.87;10.97;;;9.90;99.90;;;;;;5034049;28;20189;-94
2022/01/23 14:06:16;;;;;;;19.07;11.30;;;9.80;99.90;;;;;;5056329;28;20175;-89
2022/01/23 14:13:03;;;;;;;14.73;9.87;;;9.50;99.90;;;;;;5028539;28;20176;-89
2022/01/23 14:16:19;;;;;;;14.37;9.10;;;9.40;99.90;;;;;;5024675;28;20199;-88
2022/01/23 14:19:08;;;;;;;14.73;9.13;;;9.40;99.90;;;;;;5041009;28;20241;-88
2022/01/23 14:22:02;;;;;;;14.70;9.53;;;9.60;99.90;;;;;;5024678;28;20161;-89
2022/01/23 14:25:29;;;;;;;17.27;9.20;;;9.60;99.90;;;;;;5041283;28;20203;-93
2022/01/23 14:28:46;;;;;;;19.03;11.00;;;9.60;99.90;;;;;;5059275;28;20273;-90
2022/01/23 14:31:43;;;;;;;16.40;10.17;;;9.70;99.90;;;;;;5043206;28;20256;-87
2022/01/23 14:35:07;;;;;;;16.20;9.47;;;9.80;99.90;;;;;;5061548;28;20146;-87
2022/01/23 14:38:50;;;;;;;21.50;11.20;;;9.70;99.90;;;;;;5058440;28;20169;-88
2022/01/23 14:41:36;;;;;;;13.83;8.73;;;9.60;99.90;;;;;;5044129;28;20200;-88
2022/01/23 14:44:27;;;;;;;13.70;8.70;;;9.60;99.90;;;;;;5043872;28;20242;-88
2022/01/23 14:46:58;;;;;;;13.07;8.97;;;9.50;99.90;;;;;;5029163;28;20192;-87
2022/01/23 14:50:19;;;;;;;15.00;9.43;;;9.60;99.90;;;;;;5004840;28;20237;-87
2022/01/23 15:16:08;;;;;;;11.03;6.90;;;9.30;99.90;;;;;;5773034;23;20232;-94
2022/01/23 15:18:41;;;;;;;8.87;5.50;;;9.40;99.90;;;;;;4964377;28;20190;-94
2022/01/23 15:21:07;;;;;;;9.87;5.67;;;9.40;99.90;;;;;;4962086;28;20190;-94
2022/01/23 15:23:33;;;;;;;6.80;5.17;;;9.40;99.90;;;;;;4961460;28;20211;-94
2022/01/23 15:25:59;;;;;;;8.50;6.37;;;9.30;99.90;;;;;;4977394;28;20244;-95
2022/01/23 15:28:25;;;;;;;8.73;6.30;;;9.30;99.90;;;;;;4998576;28;20261;-94
2022/01/23 15:30:51;;;;;;;11.07;7.30;;;9.40;99.90;;;;;;4981027;28;20189;-95
2022/01/23 15:33:16;;;;;;;11.30;5.50;;;9.30;99.90;;;;;;4981236;28;20195;-94
2022/01/23 15:35:47;;;;;;;9.53;5.30;;;9.40;99.90;;;;;;4981252;28;20647;-96
2022/01/23 15:38:14;;;;;;;8.97;5.77;;;9.40;99.90;;;;;;4963358;28;20198;-96
2022/01/23 15:40:40;;;;;;;10.33;6.43;;;9.40;99.90;;;;;;4966792;28;20542;-95
2022/01/23 15:43:06;;;;;;;13.73;7.77;;;9.60;99.90;;;;;;4981323;28;20602;-94
2022/01/23 15:45:42;;;;;;;23.97;11.60;;;9.70;99.90;;;;;;4967726;28;20190;-95
2022/01/23 15:48:08;;;;;;;15.17;8.53;;;9.60;99.90;;;;;;4984247;28;20225;-95
2022/01/23 15:50:34;;;;;;;23.03;11.17;;;9.50;99.90;;;;;;4979060;28;20187;-95
2022/01/23 15:53:14;;;;;;;17.40;9.77;;;9.50;99.90;;;;;;4963210;28;20244;-95
2022/01/23 15:55:41;;;;;;;20.57;10.93;;;9.40;99.90;;;;;;4962315;29;20649;-96
2022/01/23 15:58:06;;;;;;;12.67;7.67;;;9.30;99.90;;;;;;4959657;29;20183;-94
2022/01/23 16:00:33;;;;;;;14.10;8.80;;;9.20;99.90;;;;;;4959847;28;20238;-94
2022/01/23 16:02:59;;;;;;;13.27;8.53;;;9.20;99.90;;;;;;4987031;28;20233;-96
2022/01/23 16:05:24;;;;;;;14.53;9.27;;;9.10;99.90;;;;;;4961676;28;20191;-95
2022/01/23 16:07:52;;;;;;;15.47;10.27;;;9.10;99.90;;;;;;4965783;28;20197;-94
2022/01/23 16:10:17;;;;;;;15.33;9.97;;;9.10;99.90;;;;;;4967946;28;20183;-95
2022/01/23 16:12:43;;;;;;;15.00;9.33;;;9.30;99.90;;;;;;4970781;28;20187;-95
2022/01/23 16:15:12;;;;;;;16.57;10.07;;;9.30;99.90;;;;;;4973888;28;20343;-94
2022/01/23 16:17:38;;;;;;;16.90;10.30;;;9.20;99.90;;;;;;4960870;28;20245;-87
2022/01/23 16:20:09;;;;;;;17.77;10.73;;;9.30;99.90;;;;;;4965300;28;20175;-96
2022/01/23 16:22:35;;;;;;;20.23;10.43;;;9.30;99.90;;;;;;4966599;28;20182;-96
2022/01/23 16:25:01;;;;;;;18.80;10.90;;;9.40;99.90;;;;;;4961230;28;20225;-95
2022/01/23 16:27:28;;;;;;;16.40;9.90;;;9.30;99.90;;;;;;4972077;28;20190;-95
2022/01/23 16:29:54;;;;;;;14.37;9.73;;;9.20;99.90;;;;;;4960676;28;20635;-90
2022/01/23 16:32:20;;;;;;;18.43;10.97;;;9.20;99.90;;;;;;4967099;28;20183;-96
2022/01/23 16:34:47;;;;;;;16.43;9.47;;;9.10;99.90;;;;;;4966490;28;20294;-95
2022/01/23 16:37:20;;;;;;;14.43;9.27;;;9.00;99.90;;;;;;4960538;28;20194;-94
2022/01/23 16:39:46;;;;;;;14.67;9.40;;;9.10;99.90;;;;;;4987261;28;20190;-88
2022/01/23 16:42:15;;;;;;;15.17;8.83;;;9.20;99.90;;;;;;4976171;28;20178;-94
2022/01/23 16:44:42;;;;;;;15.60;9.80;;;9.10;99.90;;;;;;4980969;28;20221;-94
2022/01/23 16:47:09;;;;;;;15.53;9.77;;;9.10;99.90;;;;;;4961418;28;20206;-94
2022/01/23 16:49:36;;;;;;;16.97;10.90;;;9.20;99.90;;;;;;4971563;28;20186;-92
2022/01/23 16:52:02;;;;;;;17.57;9.83;;;9.20;99.90;;;;;;4970517;28;20198;-94
2022/01/23 16:54:29;;;;;;;14.97;9.17;;;9.20;99.90;;;;;;4986935;28;20173;-93
2022/01/23 16:56:56;;;;;;;14.47;9.20;;;9.30;99.90;;;;;;4966921;28;20194;-93
2022/01/23 16:59:21;;;;;;;16.73;9.83;;;9.30;99.90;;;;;;4969168;28;20229;-94